Startpagina
METAR-TAF:

METAR-TAF

Vliegvelden :

Inhambane, Mozambique

breedte: 23-52S, lengte: 035-23E, hoogte: 14 m

Actueel weer

Dit bericht is 7 uur en het 47 minuten geleden gemaakt, om 19:00 UTC
Weinig wind
Temperatuur 25°C
Vochtigheid 69%
Druk 1015 hPa
Zicht 10 km of meer
Verspreide wolken op 2000 ft

METAR: FQIN 301900Z 00000KT 9999 SCT020 25/19 Q1015

Tijdstip: 04:47 (02:47 UTC)

Verwachting

Dit bericht is 4 uur en het 47 minuten geleden gemaakt, om 22:00 UTC
Verwachting geldig van 31 om 00 UTC tot 01 om 00 UTC
Wind 8 kt uit het zuidwesten
Zicht 10 km of meer
Verspreide wolken op 2000 ft

TAF: FQIN 302200Z 3100/0100 23008KT 9999 SCT020 TX30/3 CHECK TEXT NEW ENDING ADDED LFLFYFYX

Waarnemingen en weersverwachtingen van meer dan 4000 vliegvelden (METAR en TAF).

De beschikbare stations zijn de gele en rode punten op de kaart.

Ga met uw muis naar het station om de naam te zien.

Klik dan om waarnemingen en weersverwachtingen te zien.

kaart wijzigen: klik op de groene knoppen met een zwart kruis om in te zoomen, op de groene knop met een streepje om uit te zoomen of op de groene pijlen voor aangrenzende kaarten.


METAR-TAF: